Date,TemperatureHighF,TemperatureAvgF,TemperatureLowF,DewpointHighF,DewpointAvgF,DewpointLowF,HumidityHigh,HumidityAvg,HumidityLow,PressureMaxIn,PressureMinIn,WindSpeedMaxMPH,WindSpeedAvgMPH,GustSpeedMaxMPH,PrecipitationSumIn
2014-2-1,44,36,31,31,23,17,86,58,37,30.31,30.01,10,1,12,0.00
2014-2-2,56,41,29,37,32,26,91,72,44,30.08,29.89,10,2,14,0.00
2014-2-3,42,33,27,33,29,23,92,86,68,30.30,30.06,11,3,14,0.00
2014-2-4,36,29,21,25,21,16,86,73,57,30.45,30.24,6,2,11,0.00
2014-2-5,34,32,28,32,29,24,94,89,74,30.24,29.62,16,2,22,0.00
2014-2-6,31,27,20,24,16,11,78,66,53,30.27,29.95,15,5,19,0.00
2014-2-7,33,28,23,18,15,11,72,58,45,30.31,30.19,13,4,16,0.00
2014-2-8,31,25,20,11,5,0,52,42,28,30.32,30.13,10,2,15,0.00
2014-2-9,32,25,19,22,11,3,85,56,40,30.17,29.97,7,2,12,0.00
2014-2-10,31,24,20,20,10,6,81,55,38,30.25,29.97,16,5,19,0.00
2014-2-11,26,21,16,7,4,2,60,48,37,30.45,30.25,14,5,18,0.00
2014-2-12,26,19,10,13,5,1,65,54,37,30.55,30.27,11,3,12,0.00
2014-2-13,34,30,22,32,27,13,94,90,65,30.27,29.01,24,6,24,0.00
2014-2-14,40,35,30,31,27,22,93,74,55,29.75,29.01,21,6,29,0.00
2014-2-15,37,32,27,30,26,15,91,78,60,29.76,29.55,22,5,25,0.00
2014-2-16,31,25,20,15,10,7,61,54,41,30.09,29.73,20,7,29,0.00
2014-2-17,35,24,17,11,4,-2,60,44,24,30.35,30.09,16,4,20,0.00
2014-2-18,40,32,27,33,23,10,88,69,49,30.30,29.92,12,2,24,0.00
2014-2-19,42,34,27,38,29,20,90,81,67,30.09,29.68,14,1,19,0.00
2014-2-20,52,41,35,35,28,25,90,61,39,30.22,29.96,13,2,16,0.00
2014-2-21,45,38,35,44,37,32,96,93,88,30.01,29.65,9,2,16,0.00
2014-2-22,53,40,33,33,29,22,92,70,30,30.03,29.90,16,3,21,0.00
2014-2-23,57,46,34,33,28,25,82,52,30,30.00,29.83,17,2,23,0.00
2014-2-24,43,36,27,30,15,7,61,43,27,30.06,29.79,19,7,24,0.00
2014-2-25,33,28,23,14,10,6,55,46,37,30.07,29.91,18,4,21,0.00
2014-2-26,34,26,19,23,7,-6,80,46,26,29.96,29.80,22,4,25,0.00
2014-2-27,33,23,13,13,2,-14,63,41,26,30.08,29.59,27,6,31,0.00
2014-2-28,25,17,9,-2,-8,-15,41,32,24,30.42,30.08,14,4,21,0.00